createdAt,value
2022-12-17T00:01:36.982Z,3.90
2022-12-17T00:04:21.987Z,4.18
2022-12-17T00:07:07.028Z,4.50
2022-12-17T00:09:52.548Z,3.80
2022-12-17T00:12:38.024Z,4.57
2022-12-17T00:15:25.808Z,4.65
2022-12-17T00:18:10.992Z,4.00
2022-12-17T00:20:56.557Z,5.32
2022-12-17T00:23:41.863Z,5.03
2022-12-17T00:26:40.132Z,4.45
2022-12-17T00:29:26.005Z,5.57
2022-12-17T00:32:13.356Z,4.68
2022-12-17T00:34:58.683Z,4.60
2022-12-17T00:37:48.930Z,4.03
2022-12-17T00:40:42.288Z,4.32
2022-12-17T00:43:28.944Z,5.07
2022-12-17T00:46:14.948Z,4.03
2022-12-17T00:49:02.780Z,4.40
2022-12-17T00:51:48.542Z,4.28
2022-12-17T00:54:33.502Z,4.97
2022-12-17T00:57:18.762Z,3.97
2022-12-17T01:00:03.980Z,4.80
2022-12-17T01:02:49.385Z,5.25
2022-12-17T01:05:36.664Z,4.05
2022-12-17T01:08:25.756Z,4.82
2022-12-17T01:11:11.609Z,4.53
2022-12-17T01:13:56.572Z,5.57
2022-12-17T01:16:42.090Z,4.85
2022-12-17T01:19:26.984Z,4.72
2022-12-17T01:22:13.758Z,4.88
2022-12-17T01:24:58.932Z,5.25
2022-12-17T01:27:45.480Z,4.13
2022-12-17T01:30:30.840Z,5.40
2022-12-17T01:33:19.483Z,5.28
2022-12-17T01:36:04.662Z,4.72
2022-12-17T01:38:51.791Z,4.85
2022-12-17T01:41:37.317Z,5.22
2022-12-17T01:44:37.508Z,4.22
2022-12-17T01:47:23.113Z,4.07
2022-12-17T01:50:08.165Z,5.38
2022-12-17T01:53:07.793Z,5.47
2022-12-17T01:55:55.135Z,5.22
2022-12-17T01:58:40.301Z,5.22
2022-12-17T02:01:25.775Z,4.65
2022-12-17T02:04:11.068Z,4.03
2022-12-17T02:06:59.456Z,5.43
2022-12-17T02:09:48.690Z,4.15
2022-12-17T02:12:37.584Z,5.32
2022-12-17T02:15:26.589Z,4.93
2022-12-17T02:18:13.800Z,4.25
2022-12-17T02:21:03.836Z,5.40
2022-12-17T02:23:56.575Z,5.40
2022-12-17T02:26:52.483Z,5.38
2022-12-17T02:29:38.425Z,5.88
2022-12-17T02:32:32.323Z,5.07
2022-12-17T02:35:19.218Z,4.93
2022-12-17T02:38:05.244Z,6.35
2022-12-17T02:40:51.718Z,5.55
2022-12-17T02:43:40.187Z,4.88
2022-12-17T02:46:25.696Z,5.82
2022-12-17T02:49:11.167Z,5.28
2022-12-17T02:51:56.626Z,5.07
2022-12-17T02:54:41.626Z,5.97
2022-12-17T02:57:27.940Z,5.50
2022-12-17T03:00:17.290Z,5.55
2022-12-17T03:02:59.009Z,5.93
2022-12-17T03:05:45.605Z,6.32
2022-12-17T03:08:31.456Z,4.60
2022-12-17T03:11:17.386Z,4.57
2022-12-17T03:14:02.489Z,5.00
2022-12-17T03:16:49.282Z,6.00
2022-12-17T03:19:34.365Z,4.75
2022-12-17T03:22:19.669Z,5.80
2022-12-17T03:25:05.094Z,6.18
2022-12-17T03:27:50.501Z,5.78
2022-12-17T03:30:37.822Z,4.25
2022-12-17T03:33:28.071Z,5.13
2022-12-17T03:36:13.680Z,5.95
2022-12-17T03:39:00.363Z,4.68
2022-12-17T03:41:45.449Z,6.35
2022-12-17T03:44:30.602Z,6.63
2022-12-17T03:47:15.491Z,5.00
2022-12-17T03:50:02.379Z,5.70
2022-12-17T03:52:47.652Z,5.65
2022-12-17T03:55:33.053Z,5.68
2022-12-17T03:58:18.576Z,5.30
2022-12-17T04:01:03.651Z,5.93
2022-12-17T04:03:48.611Z,6.10
2022-12-17T04:06:35.348Z,6.05
2022-12-17T04:09:20.946Z,5.15
2022-12-17T04:12:06.258Z,6.18
2022-12-17T04:14:51.317Z,5.65
2022-12-17T04:17:36.360Z,5.63
2022-12-17T04:20:21.113Z,6.00
2022-12-17T04:23:08.222Z,5.70
2022-12-17T04:25:53.436Z,5.45
2022-12-17T04:28:38.513Z,5.70
2022-12-17T04:31:24.093Z,5.53
2022-12-17T04:34:09.361Z,6.80
2022-12-17T04:36:53.839Z,6.18
2022-12-17T04:39:40.599Z,5.60
2022-12-17T04:42:25.893Z,5.70
2022-12-17T04:45:10.824Z,6.55
2022-12-17T04:47:55.768Z,6.80
2022-12-17T04:50:40.684Z,6.10
2022-12-17T04:53:26.327Z,6.22
2022-12-17T04:56:14.396Z,6.88
2022-12-17T04:58:59.619Z,6.30
2022-12-17T05:01:45.277Z,6.53
2022-12-17T05:04:30.547Z,7.10
2022-12-17T05:07:15.781Z,5.78
2022-12-17T05:09:59.971Z,5.82
2022-12-17T05:12:47.388Z,6.97
2022-12-17T05:15:32.884Z,6.38
2022-12-17T05:18:23.021Z,6.28
2022-12-17T05:21:08.130Z,5.43
2022-12-17T05:23:53.392Z,5.88
2022-12-17T05:26:39.810Z,6.45
2022-12-17T05:29:26.572Z,6.32
2022-12-17T05:32:11.777Z,6.88
2022-12-17T05:34:57.316Z,5.45
2022-12-17T05:37:42.484Z,5.68
2022-12-17T05:40:27.991Z,6.38
2022-12-17T05:43:13.431Z,6.07
2022-12-17T05:46:05.661Z,6.35
2022-12-17T05:48:51.300Z,6.32
2022-12-17T05:51:38.859Z,6.30
2022-12-17T05:54:24.685Z,6.32
2022-12-17T05:57:18.198Z,7.47
2022-12-17T06:00:03.404Z,7.55
2022-12-17T06:02:59.020Z,6.78
2022-12-17T06:05:44.449Z,6.65
2022-12-17T06:08:29.620Z,6.65
2022-12-17T06:11:16.734Z,7.43
2022-12-17T06:14:02.472Z,6.75
2022-12-17T06:16:48.112Z,6.05
2022-12-17T06:19:34.882Z,7.78
2022-12-17T06:22:20.177Z,8.27
2022-12-17T06:25:05.466Z,8.13
2022-12-17T06:27:50.480Z,7.65
2022-12-17T06:30:35.736Z,7.35
2022-12-17T06:33:24.433Z,6.95
2022-12-17T06:36:19.705Z,7.05
2022-12-17T06:39:07.047Z,7.20
2022-12-17T06:42:04.321Z,7.40
2022-12-17T06:44:50.058Z,6.80
2022-12-17T06:47:35.079Z,7.18
2022-12-17T06:50:20.321Z,7.78
2022-12-17T06:53:07.075Z,7.55
2022-12-17T06:55:52.243Z,7.00
2022-12-17T06:58:37.645Z,7.70
2022-12-17T07:01:22.947Z,6.65
2022-12-17T07:04:09.237Z,7.28
2022-12-17T07:06:54.522Z,7.78
2022-12-17T07:09:41.556Z,7.07
2022-12-17T07:12:26.940Z,7.00
2022-12-17T07:15:11.953Z,6.57
2022-12-17T07:17:57.300Z,7.93
2022-12-17T07:20:42.405Z,7.13
2022-12-17T07:23:24.124Z,7.78
2022-12-17T07:26:10.853Z,6.25
2022-12-17T07:28:55.799Z,7.55
2022-12-17T07:31:41.014Z,6.95
2022-12-17T07:34:26.051Z,7.28
2022-12-17T07:37:12.367Z,6.57
2022-12-17T07:39:59.243Z,6.80
2022-12-17T07:42:45.814Z,6.95
2022-12-17T07:45:31.711Z,6.10
2022-12-17T07:48:19.263Z,5.60
2022-12-17T07:51:07.093Z,7.22
2022-12-17T07:53:52.171Z,6.72
2022-12-17T07:56:38.285Z,7.30
2022-12-17T07:59:25.188Z,7.38
2022-12-17T08:02:10.808Z,7.88
2022-12-17T08:04:56.100Z,6.50
2022-12-17T08:07:41.389Z,7.07
2022-12-17T08:10:26.889Z,7.88
2022-12-17T08:13:14.336Z,8.07
2022-12-17T08:16:01.463Z,7.07
2022-12-17T08:18:47.008Z,8.57
2022-12-17T08:21:47.043Z,7.25
2022-12-17T08:24:32.344Z,8.18
2022-12-17T08:27:17.400Z,8.05
2022-12-17T08:30:02.720Z,6.63
2022-12-17T08:32:49.803Z,6.13
2022-12-17T08:35:35.028Z,6.68
2022-12-17T08:38:20.756Z,8.60
2022-12-17T08:41:06.003Z,8.23
2022-12-17T08:43:50.592Z,9.40
2022-12-17T08:46:36.340Z,9.73
2022-12-17T08:49:23.375Z,10.50
2022-12-17T08:52:08.535Z,10.10
2022-12-17T08:54:53.496Z,10.35
2022-12-17T08:57:38.796Z,10.77
2022-12-17T09:00:24.608Z,10.23
2022-12-17T09:03:16.606Z,11.90
2022-12-17T09:06:08.622Z,10.98
2022-12-17T09:08:53.894Z,10.60
2022-12-17T09:11:39.309Z,12.07
2022-12-17T09:14:24.244Z,10.63
2022-12-17T09:17:09.280Z,11.32
2022-12-17T09:19:54.528Z,11.32
2022-12-17T09:22:41.268Z,13.20
2022-12-17T09:25:26.919Z,13.23
2022-12-17T09:28:12.274Z,11.77
2022-12-17T09:30:57.541Z,11.93
2022-12-17T09:33:42.763Z,11.27
2022-12-17T09:36:28.564Z,11.50
2022-12-17T09:39:15.495Z,10.88
2022-12-17T09:42:06.729Z,10.70
2022-12-17T09:44:55.225Z,11.27
2022-12-17T09:47:46.967Z,11.25
2022-12-17T09:50:33.258Z,10.45
2022-12-17T09:53:19.280Z,10.43
2022-12-17T09:56:07.021Z,10.82
2022-12-17T09:58:54.019Z,11.38
2022-12-17T10:01:40.629Z,11.65
2022-12-17T10:04:36.827Z,10.43
2022-12-17T10:07:23.097Z,10.30
2022-12-17T10:10:09.663Z,11.55
2022-12-17T10:12:57.004Z,13.38
2022-12-17T10:15:42.230Z,13.07
2022-12-17T10:18:29.855Z,12.65
2022-12-17T10:21:16.322Z,13.65
2022-12-17T10:24:01.744Z,11.90
2022-12-17T10:26:47.878Z,12.18
2022-12-17T10:29:41.189Z,10.70
2022-12-17T10:32:30.543Z,12.43
2022-12-17T10:35:16.312Z,13.32
2022-12-17T10:38:01.310Z,12.35
2022-12-17T10:40:47.804Z,13.45
2022-12-17T10:43:40.579Z,13.55
2022-12-17T10:46:27.743Z,13.18
2022-12-17T10:49:21.925Z,14.27
2022-12-17T10:52:08.258Z,13.68
2022-12-17T10:54:53.923Z,13.27
2022-12-17T10:57:42.654Z,13.25
2022-12-17T11:00:44.269Z,13.13
2022-12-17T11:03:57.758Z,12.93
2022-12-17T11:06:44.772Z,12.50
2022-12-17T11:09:37.110Z,14.05
2022-12-17T11:12:30.094Z,11.77
2022-12-17T11:15:17.981Z,12.93
2022-12-17T11:18:09.434Z,13.60
2022-12-17T11:21:03.420Z,14.07
2022-12-17T11:23:49.536Z,13.82
2022-12-17T11:26:36.760Z,13.63
2022-12-17T11:29:21.965Z,14.68
2022-12-17T11:32:22.453Z,14.45
2022-12-17T11:35:13.880Z,13.88
2022-12-17T11:38:05.240Z,12.52
2022-12-17T11:40:57.646Z,13.48
2022-12-17T11:43:57.380Z,14.93
2022-12-17T11:46:48.455Z,14.48
2022-12-17T11:49:38.060Z,13.38
2022-12-17T11:52:27.525Z,12.80
2022-12-17T11:55:18.571Z,12.27
2022-12-17T11:58:07.309Z,13.40
2022-12-17T12:00:58.576Z,12.10
2022-12-17T12:03:49.146Z,12.52
2022-12-17T12:06:37.424Z,13.50
2022-12-17T12:09:26.787Z,13.30
2022-12-17T12:12:27.743Z,13.40
2022-12-17T12:15:18.720Z,12.88
2022-12-17T12:18:07.312Z,13.30
2022-12-17T12:21:01.605Z,12.63
2022-12-17T12:23:54.318Z,13.55
2022-12-17T12:26:41.128Z,13.23
2022-12-17T12:29:34.107Z,11.73
2022-12-17T12:32:23.273Z,12.48
2022-12-17T12:35:10.060Z,11.85
2022-12-17T12:37:55.173Z,12.15
2022-12-17T12:40:43.446Z,12.48
2022-12-17T12:43:30.919Z,12.63
2022-12-17T12:46:21.134Z,11.63
2022-12-17T12:49:10.544Z,12.40
2022-12-17T12:51:56.464Z,11.50
2022-12-17T12:54:43.144Z,11.02
2022-12-17T12:57:44.561Z,11.15
2022-12-17T13:00:40.709Z,11.23
2022-12-17T13:03:39.366Z,11.40
2022-12-17T13:06:07.775Z,11.15
2022-12-17T13:08:36.571Z,11.43
2022-12-17T13:11:11.447Z,10.93
2022-12-17T13:13:56.214Z,10.98
2022-12-17T13:16:32.804Z,10.90
2022-12-17T13:19:06.322Z,10.77
2022-12-17T13:21:34.064Z,11.57
2022-12-17T13:24:11.694Z,9.90
2022-12-17T13:26:46.242Z,9.55
2022-12-17T13:29:20.876Z,9.90
2022-12-17T13:32:03.777Z,9.57
2022-12-17T13:34:38.868Z,9.55
2022-12-17T13:37:09.414Z,7.93
2022-12-17T13:39:41.115Z,9.05
2022-12-17T13:42:17.321Z,7.93
2022-12-17T13:44:46.606Z,8.50
2022-12-17T13:47:21.430Z,7.95
2022-12-17T13:50:24.467Z,8.80
2022-12-17T13:52:41.460Z,8.02
2022-12-17T13:55:10.022Z,8.05
2022-12-17T13:57:39.042Z,7.40
2022-12-17T14:00:08.175Z,7.82
2022-12-17T14:02:42.475Z,7.28
2022-12-17T14:05:24.450Z,4.50
2022-12-17T14:07:52.275Z,5.75
2022-12-17T14:10:20.507Z,6.72
2022-12-17T14:12:47.496Z,6.80
2022-12-17T14:15:20.173Z,7.35
2022-12-17T14:17:49.048Z,5.85
2022-12-17T14:20:18.291Z,6.25
2022-12-17T14:22:51.662Z,6.35
2022-12-17T14:25:20.874Z,6.72
2022-12-17T14:27:54.471Z,6.40
2022-12-17T14:30:24.067Z,6.57
2022-12-17T14:32:52.263Z,5.65
2022-12-17T14:35:27.381Z,4.78
2022-12-17T14:37:57.355Z,6.10
2022-12-17T14:40:26.400Z,5.50
2022-12-17T14:42:54.890Z,5.47
2022-12-17T14:45:24.519Z,5.95
2022-12-17T14:47:56.290Z,4.85
2022-12-17T14:50:32.802Z,4.80
2022-12-17T14:53:03.379Z,5.80
2022-12-17T14:55:35.596Z,5.10
2022-12-17T14:58:09.068Z,6.32
2022-12-17T15:00:38.537Z,4.47
2022-12-17T15:03:07.028Z,4.47
2022-12-17T15:05:36.365Z,5.10
2022-12-17T15:08:07.356Z,5.32
2022-12-17T15:10:35.179Z,5.05
2022-12-17T15:13:03.297Z,4.80
2022-12-17T15:15:31.383Z,5.00
2022-12-17T15:17:59.287Z,4.43
2022-12-17T15:20:27.275Z,4.50
2022-12-17T15:22:55.195Z,4.63
2022-12-17T15:25:24.802Z,4.90
2022-12-17T15:27:52.820Z,4.28
2022-12-17T15:30:20.791Z,4.45
2022-12-17T15:32:48.645Z,4.47
2022-12-17T15:35:16.532Z,6.00
2022-12-17T15:37:44.566Z,6.35
2022-12-17T15:40:12.553Z,4.85
2022-12-17T15:43:03.125Z,5.30
2022-12-17T15:45:32.966Z,4.68
2022-12-17T15:48:01.038Z,6.22
2022-12-17T15:50:29.436Z,5.57
2022-12-17T15:52:57.459Z,5.18
2022-12-17T15:55:25.380Z,5.38
2022-12-17T15:57:54.939Z,5.82
2022-12-17T16:00:22.917Z,4.57
2022-12-17T16:02:51.294Z,4.72
2022-12-17T16:05:19.192Z,3.92
2022-12-17T16:07:49.372Z,6.05
2022-12-17T16:10:17.742Z,4.95
2022-12-17T16:12:45.743Z,4.72
2022-12-17T16:15:15.312Z,4.70
2022-12-17T16:17:43.363Z,6.03
2022-12-17T16:20:11.908Z,5.35
2022-12-17T16:22:39.779Z,4.75
2022-12-17T16:25:08.128Z,5.18
2022-12-17T16:27:36.099Z,4.78
2022-12-17T16:30:04.610Z,5.57
2022-12-17T16:32:36.690Z,4.43
2022-12-17T16:35:05.120Z,5.72
2022-12-17T16:37:33.376Z,4.68
2022-12-17T16:40:01.195Z,3.40
2022-12-17T16:42:29.171Z,4.28
2022-12-17T16:44:56.948Z,5.22
2022-12-17T16:47:25.204Z,5.70
2022-12-17T16:49:54.682Z,4.13
2022-12-17T16:52:22.556Z,5.40
2022-12-17T16:54:50.307Z,4.93
2022-12-17T16:57:18.429Z,3.92
2022-12-17T16:59:46.582Z,5.63
2022-12-17T17:02:15.197Z,4.82
2022-12-17T17:04:43.457Z,4.40
2022-12-17T17:07:12.985Z,4.30
2022-12-17T17:09:40.962Z,4.68
2022-12-17T17:12:09.284Z,4.90
2022-12-17T17:14:37.084Z,4.38
2022-12-17T17:17:04.757Z,4.43
2022-12-17T17:19:32.723Z,4.55
2022-12-17T17:22:00.649Z,4.40
2022-12-17T17:24:29.917Z,3.50
2022-12-17T17:26:57.905Z,4.15
2022-12-17T17:29:25.851Z,5.07
2022-12-17T17:32:09.647Z,4.95
2022-12-17T17:34:39.176Z,4.75
2022-12-17T17:37:06.959Z,3.90
2022-12-17T17:39:36.725Z,5.40
2022-12-17T17:42:04.835Z,3.97
2022-12-17T17:44:32.823Z,4.57
2022-12-17T17:47:00.789Z,4.38
2022-12-17T17:49:28.991Z,3.95
2022-12-17T17:52:12.565Z,3.85
2022-12-17T17:54:42.042Z,4.18
2022-12-17T17:57:10.613Z,4.18
2022-12-17T17:59:39.355Z,4.30
2022-12-17T18:02:08.923Z,4.07
2022-12-17T18:04:37.085Z,4.72
2022-12-17T18:09:54.261Z,4.25
2022-12-17T18:12:39.640Z,4.15
2022-12-17T18:15:17.398Z,3.55
2022-12-17T18:17:47.853Z,3.75
2022-12-17T18:20:15.913Z,3.42
2022-12-17T18:22:45.085Z,4.47
2022-12-17T18:25:14.419Z,3.17
2022-12-17T18:27:42.633Z,3.83
2022-12-17T18:30:11.031Z,3.50
2022-12-17T18:32:38.998Z,3.53
2022-12-17T18:35:07.348Z,4.00
2022-12-17T18:37:35.187Z,4.32
2022-12-17T18:40:03.089Z,3.30
2022-12-17T18:42:50.104Z,3.28
2022-12-17T18:45:18.018Z,4.05
2022-12-17T18:47:46.136Z,3.92
2022-12-17T18:50:14.213Z,4.05
2022-12-17T18:52:42.130Z,4.22
2022-12-17T18:55:10.174Z,3.25
2022-12-17T18:57:39.623Z,4.22
2022-12-17T19:00:08.353Z,3.67
2022-12-17T19:02:36.443Z,4.00
2022-12-17T19:05:05.210Z,4.40
2022-12-17T19:07:33.202Z,3.47
2022-12-17T19:10:00.934Z,2.88
2022-12-17T19:12:29.453Z,3.58
2022-12-17T19:14:58.571Z,3.10
2022-12-17T19:17:26.709Z,4.65
2022-12-17T19:19:54.534Z,3.35
2022-12-17T19:22:22.390Z,3.20
2022-12-17T19:24:50.275Z,3.95
2022-12-17T19:27:18.351Z,3.13
2022-12-17T19:29:49.707Z,3.92
2022-12-17T19:32:19.798Z,3.35
2022-12-17T19:34:47.824Z,3.50
2022-12-17T19:37:15.748Z,3.80
2022-12-17T19:39:43.773Z,3.90
2022-12-17T19:42:25.122Z,3.47
2022-12-17T19:44:53.511Z,3.78
2022-12-17T19:47:23.271Z,3.58
2022-12-17T19:49:51.481Z,4.18
2022-12-17T19:52:19.498Z,3.40
2022-12-17T19:54:47.683Z,3.95
2022-12-17T19:57:16.791Z,3.10
2022-12-17T19:59:44.724Z,3.50
2022-12-17T20:02:12.741Z,3.78
2022-12-17T20:04:42.327Z,4.10
2022-12-17T20:07:10.364Z,3.65
2022-12-17T20:09:38.307Z,3.95
2022-12-17T20:12:06.318Z,4.95
2022-12-17T20:14:35.382Z,4.07
2022-12-17T20:17:05.057Z,3.33
2022-12-17T20:19:34.626Z,3.35
2022-12-17T20:22:05.692Z,3.88
2022-12-17T20:24:33.698Z,3.63
2022-12-17T20:27:01.615Z,3.58
2022-12-17T20:29:29.566Z,3.97
2022-12-17T20:31:57.998Z,3.55
2022-12-17T20:34:26.320Z,4.15
2022-12-17T20:36:54.708Z,4.18
2022-12-17T20:39:27.621Z,4.28
2022-12-17T20:41:56.390Z,4.32
2022-12-17T20:44:24.261Z,5.15
2022-12-17T20:46:52.179Z,3.83
2022-12-17T20:49:20.112Z,3.50
2022-12-17T20:51:48.184Z,3.80
2022-12-17T20:54:16.189Z,3.60
2022-12-17T20:56:45.656Z,4.50
2022-12-17T20:59:15.827Z,3.53
2022-12-17T21:01:44.546Z,4.18
2022-12-17T21:04:13.201Z,4.28
2022-12-17T21:06:43.062Z,3.40
2022-12-17T21:09:11.736Z,4.45
2022-12-17T21:11:40.386Z,3.50
2022-12-17T21:14:11.905Z,3.88
2022-12-17T21:16:40.420Z,4.43
2022-12-17T21:19:09.115Z,3.40
2022-12-17T21:21:38.398Z,4.32
2022-12-17T21:24:07.013Z,3.97
2022-12-17T21:26:36.463Z,3.40
2022-12-17T21:29:05.366Z,3.70
2022-12-17T21:31:35.571Z,3.92
2022-12-17T21:34:05.028Z,3.78
2022-12-17T21:36:33.815Z,3.80
2022-12-17T21:39:02.193Z,4.07
2022-12-17T21:41:37.892Z,3.60
2022-12-17T21:44:07.687Z,3.60
2022-12-17T21:46:37.103Z,4.80
2022-12-17T21:49:05.149Z,4.25
2022-12-17T21:51:33.408Z,4.63
2022-12-17T21:54:08.156Z,4.00
2022-12-17T21:56:36.935Z,4.40
2022-12-17T21:59:04.998Z,4.00
2022-12-17T22:01:33.743Z,4.35
2022-12-17T22:04:04.911Z,4.07
2022-12-17T22:06:42.771Z,4.88
2022-12-17T22:09:20.427Z,4.18
2022-12-17T22:12:15.672Z,4.18
2022-12-17T22:14:43.694Z,4.32
2022-12-17T22:17:12.016Z,4.55
2022-12-17T22:19:41.954Z,3.78
2022-12-17T22:22:10.035Z,4.50
2022-12-17T22:24:37.774Z,4.38
2022-12-17T22:27:09.563Z,4.22
2022-12-17T22:30:09.696Z,5.25
2022-12-17T22:32:54.849Z,5.57
2022-12-17T22:36:50.922Z,4.95
2022-12-17T22:41:08.248Z,4.68
2022-12-17T22:44:31.890Z,4.63
2022-12-17T22:44:37.449Z,4.00
2022-12-17T22:46:40.085Z,4.53
2022-12-17T22:49:07.845Z,4.22
2022-12-17T22:51:38.075Z,4.10
2022-12-17T22:54:08.565Z,4.80
2022-12-17T22:57:34.615Z,4.68
2022-12-17T22:59:25.081Z,4.47
2022-12-17T23:01:53.924Z,5.00
2022-12-17T23:04:22.581Z,4.70
2022-12-17T23:06:51.934Z,5.13
2022-12-17T23:09:20.748Z,3.92
2022-12-17T23:11:49.114Z,4.97
2022-12-17T23:14:17.240Z,4.28
2022-12-17T23:16:45.088Z,4.75
2022-12-17T23:19:14.203Z,3.78
2022-12-17T23:21:42.239Z,4.65
2022-12-17T23:24:11.940Z,4.65
2022-12-17T23:26:40.690Z,5.07
2022-12-17T23:29:14.916Z,5.20
2022-12-17T23:31:45.602Z,3.90
2022-12-17T23:34:13.480Z,5.15
2022-12-17T23:36:41.326Z,4.65
2022-12-17T23:39:09.267Z,4.18
2022-12-17T23:41:38.828Z,4.60
2022-12-17T23:44:07.174Z,4.63
2022-12-17T23:46:35.125Z,5.28
2022-12-17T23:49:05.807Z,4.47
2022-12-17T23:51:33.796Z,5.55
2022-12-17T23:54:01.515Z,5.18
2022-12-17T23:56:29.673Z,5.47
2022-12-17T23:59:00.113Z,5.32
